sensor_id;sensor_type;location;lat;lon;timestamp;temperature;humidity
73438;DHT22;66471;56.532;21.020;2024-02-21T00:01:41;2.30;99.90
73438;DHT22;66471;56.532;21.020;2024-02-21T00:04:08;2.10;99.90
73438;DHT22;66471;56.532;21.020;2024-02-21T00:06:36;2.30;99.90
73438;DHT22;66471;56.532;21.020;2024-02-21T00:09:03;2.40;99.90
73438;DHT22;66471;56.532;21.020;2024-02-21T00:11:30;2.20;99.90
73438;DHT22;66471;56.532;21.020;2024-02-21T00:13:57;2.30;99.90
73438;DHT22;66471;56.532;21.020;2024-02-21T00:16:24;2.50;99.90
73438;DHT22;66471;56.532;21.020;2024-02-21T00:18:52;2.40;99.90
73438;DHT22;66471;56.532;21.020;2024-02-21T00:21:19;2.30;99.90
73438;DHT22;66471;56.532;21.020;2024-02-21T00:23:46;2.20;99.90
73438;DHT22;66471;56.532;21.020;2024-02-21T00:26:14;2.40;99.90
73438;DHT22;66471;56.532;21.020;2024-02-21T00:28:41;2.30;99.90
73438;DHT22;66471;56.532;21.020;2024-02-21T00:31:08;2.10;99.90
73438;DHT22;66471;56.532;21.020;2024-02-21T00:33:35;2.20;99.90
73438;DHT22;66471;56.532;21.020;2024-02-21T00:36:03;2.30;99.90
73438;DHT22;66471;56.532;21.020;2024-02-21T00:38:31;2.40;99.90
73438;DHT22;66471;56.532;21.020;2024-02-21T00:41:00;2.20;99.90
73438;DHT22;66471;56.532;21.020;2024-02-21T00:43:27;2.20;99.90
73438;DHT22;66471;56.532;21.020;2024-02-21T00:45:54;2.10;99.90
73438;DHT22;66471;56.532;21.020;2024-02-21T00:48:21;2.20;99.90
73438;DHT22;66471;56.532;21.020;2024-02-21T00:50:49;2.10;99.90
73438;DHT22;66471;56.532;21.020;2024-02-21T00:53:16;2.20;99.90
73438;DHT22;66471;56.532;21.020;2024-02-21T00:55:44;2.10;99.90
73438;DHT22;66471;56.532;21.020;2024-02-21T00:58:11;2.20;99.90
73438;DHT22;66471;56.532;21.020;2024-02-21T01:00:38;2.10;99.90
73438;DHT22;66471;56.532;21.020;2024-02-21T01:03:05;2.20;99.90
73438;DHT22;66471;56.532;21.020;2024-02-21T01:05:32;2.20;99.90
73438;DHT22;66471;56.532;21.020;2024-02-21T01:07:59;2.20;99.90
73438;DHT22;66471;56.532;21.020;2024-02-21T01:10:27;1.80;99.90
73438;DHT22;66471;56.532;21.020;2024-02-21T01:12:54;1.90;99.90
73438;DHT22;66471;56.532;21.020;2024-02-21T01:15:21;2.00;99.90
73438;DHT22;66471;56.532;21.020;2024-02-21T01:17:48;2.00;99.90
73438;DHT22;66471;56.532;21.020;2024-02-21T01:20:17;1.90;99.90
73438;DHT22;66471;56.532;21.020;2024-02-21T01:22:45;2.00;99.90
73438;DHT22;66471;56.532;21.020;2024-02-21T01:25:12;2.20;99.90
73438;DHT22;66471;56.532;21.020;2024-02-21T01:27:39;2.20;99.90
73438;DHT22;66471;56.532;21.020;2024-02-21T01:30:07;1.90;99.90
73438;DHT22;66471;56.532;21.020;2024-02-21T01:32:34;2.10;99.90
73438;DHT22;66471;56.532;21.020;2024-02-21T01:35:01;1.90;99.90
73438;DHT22;66471;56.532;21.020;2024-02-21T01:37:28;2.20;99.90
73438;DHT22;66471;56.532;21.020;2024-02-21T01:39:56;2.00;99.90
73438;DHT22;66471;56.532;21.020;2024-02-21T01:42:23;2.00;99.90
73438;DHT22;66471;56.532;21.020;2024-02-21T01:44:50;2.20;99.90
73438;DHT22;66471;56.532;21.020;2024-02-21T01:47:18;2.00;99.90
73438;DHT22;66471;56.532;21.020;2024-02-21T01:49:45;2.00;99.90
73438;DHT22;66471;56.532;21.020;2024-02-21T01:52:14;1.80;99.90
73438;DHT22;66471;56.532;21.020;2024-02-21T01:54:43;2.20;99.90
73438;DHT22;66471;56.532;21.020;2024-02-21T01:57:10;2.00;99.90
73438;DHT22;66471;56.532;21.020;2024-02-21T01:59:38;1.90;99.90
73438;DHT22;66471;56.532;21.020;2024-02-21T02:02:06;1.90;99.90
73438;DHT22;66471;56.532;21.020;2024-02-21T02:04:34;2.00;99.90
73438;DHT22;66471;56.532;21.020;2024-02-21T02:07:02;2.30;99.90
73438;DHT22;66471;56.532;21.020;2024-02-21T02:09:31;2.00;99.90
73438;DHT22;66471;56.532;21.020;2024-02-21T02:11:58;2.00;99.90
73438;DHT22;66471;56.532;21.020;2024-02-21T02:14:26;2.10;99.90
73438;DHT22;66471;56.532;21.020;2024-02-21T02:16:53;2.10;99.90
73438;DHT22;66471;56.532;21.020;2024-02-21T02:19:20;2.10;99.90
73438;DHT22;66471;56.532;21.020;2024-02-21T02:21:53;2.20;99.90
73438;DHT22;66471;56.532;21.020;2024-02-21T02:24:24;1.90;99.90
73438;DHT22;66471;56.532;21.020;2024-02-21T02:26:55;2.00;99.90
73438;DHT22;66471;56.532;21.020;2024-02-21T02:29:22;2.00;99.90
73438;DHT22;66471;56.532;21.020;2024-02-21T02:31:49;2.20;99.90
73438;DHT22;66471;56.532;21.020;2024-02-21T02:34:17;2.20;99.90
73438;DHT22;66471;56.532;21.020;2024-02-21T02:36:44;2.10;99.90
73438;DHT22;66471;56.532;21.020;2024-02-21T02:39:11;2.30;99.90
73438;DHT22;66471;56.532;21.020;2024-02-21T02:41:38;2.10;99.90
73438;DHT22;66471;56.532;21.020;2024-02-21T02:44:05;2.00;99.90
73438;DHT22;66471;56.532;21.020;2024-02-21T02:46:32;2.30;99.90
73438;DHT22;66471;56.532;21.020;2024-02-21T02:49:01;2.30;99.90
73438;DHT22;66471;56.532;21.020;2024-02-21T02:51:28;2.10;99.90
73438;DHT22;66471;56.532;21.020;2024-02-21T02:53:55;2.40;99.90
73438;DHT22;66471;56.532;21.020;2024-02-21T02:56:24;2.10;99.90
73438;DHT22;66471;56.532;21.020;2024-02-21T02:58:51;2.30;99.90
73438;DHT22;66471;56.532;21.020;2024-02-21T03:01:18;2.20;99.90
73438;DHT22;66471;56.532;21.020;2024-02-21T03:03:45;2.50;99.90
73438;DHT22;66471;56.532;21.020;2024-02-21T03:06:14;2.30;99.90
73438;DHT22;66471;56.532;21.020;2024-02-21T03:08:41;2.20;99.90
73438;DHT22;66471;56.532;21.020;2024-02-21T03:11:09;2.50;99.90
73438;DHT22;66471;56.532;21.020;2024-02-21T03:13:38;2.50;99.90
73438;DHT22;66471;56.532;21.020;2024-02-21T03:16:05;2.40;99.90
73438;DHT22;66471;56.532;21.020;2024-02-21T03:18:32;2.50;99.90
73438;DHT22;66471;56.532;21.020;2024-02-21T03:20:59;2.50;99.90
73438;DHT22;66471;56.532;21.020;2024-02-21T03:23:26;2.40;99.90
73438;DHT22;66471;56.532;21.020;2024-02-21T03:25:53;2.60;99.90
73438;DHT22;66471;56.532;21.020;2024-02-21T03:28:20;2.80;99.90
73438;DHT22;66471;56.532;21.020;2024-02-21T03:30:48;2.80;99.90
73438;DHT22;66471;56.532;21.020;2024-02-21T03:33:15;2.70;99.90
73438;DHT22;66471;56.532;21.020;2024-02-21T03:35:42;2.60;99.90
73438;DHT22;66471;56.532;21.020;2024-02-21T03:38:09;3.00;99.90
73438;DHT22;66471;56.532;21.020;2024-02-21T03:40:36;2.80;99.90
73438;DHT22;66471;56.532;21.020;2024-02-21T03:43:03;2.80;99.90
73438;DHT22;66471;56.532;21.020;2024-02-21T03:45:30;2.70;99.90
73438;DHT22;66471;56.532;21.020;2024-02-21T03:47:58;2.80;99.90
73438;DHT22;66471;56.532;21.020;2024-02-21T03:50:26;2.70;99.90
73438;DHT22;66471;56.532;21.020;2024-02-21T03:52:54;2.80;99.90
73438;DHT22;66471;56.532;21.020;2024-02-21T03:55:22;2.60;99.90
73438;DHT22;66471;56.532;21.020;2024-02-21T03:57:49;2.40;99.90
73438;DHT22;66471;56.532;21.020;2024-02-21T04:00:17;3.00;99.90
73438;DHT22;66471;56.532;21.020;2024-02-21T04:02:44;2.70;99.90
73438;DHT22;66471;56.532;21.020;2024-02-21T04:05:11;2.70;99.90
73438;DHT22;66471;56.532;21.020;2024-02-21T04:07:38;2.90;99.90
73438;DHT22;66471;56.532;21.020;2024-02-21T04:10:06;2.80;99.90
73438;DHT22;66471;56.532;21.020;2024-02-21T04:12:33;2.60;99.90
73438;DHT22;66471;56.532;21.020;2024-02-21T04:15:01;2.70;99.90
73438;DHT22;66471;56.532;21.020;2024-02-21T04:17:28;2.80;99.90
73438;DHT22;66471;56.532;21.020;2024-02-21T04:20:04;2.70;99.90
73438;DHT22;66471;56.532;21.020;2024-02-21T04:22:37;2.70;99.90
73438;DHT22;66471;56.532;21.020;2024-02-21T04:25:05;2.70;99.90
73438;DHT22;66471;56.532;21.020;2024-02-21T04:27:32;2.60;99.90
73438;DHT22;66471;56.532;21.020;2024-02-21T04:29:59;2.90;99.90
73438;DHT22;66471;56.532;21.020;2024-02-21T04:32:27;2.70;99.90
73438;DHT22;66471;56.532;21.020;2024-02-21T04:34:54;2.60;99.90
73438;DHT22;66471;56.532;21.020;2024-02-21T04:37:22;2.70;99.90
73438;DHT22;66471;56.532;21.020;2024-02-21T04:39:49;2.90;99.90
73438;DHT22;66471;56.532;21.020;2024-02-21T04:42:16;2.60;99.90
73438;DHT22;66471;56.532;21.020;2024-02-21T04:44:43;2.60;99.90
73438;DHT22;66471;56.532;21.020;2024-02-21T04:47:10;2.80;99.90
73438;DHT22;66471;56.532;21.020;2024-02-21T04:49:38;2.50;99.90
73438;DHT22;66471;56.532;21.020;2024-02-21T04:52:05;2.70;99.90
73438;DHT22;66471;56.532;21.020;2024-02-21T04:54:32;2.60;99.90
73438;DHT22;66471;56.532;21.020;2024-02-21T04:57:02;2.60;99.90
73438;DHT22;66471;56.532;21.020;2024-02-21T04:59:29;2.90;99.90
73438;DHT22;66471;56.532;21.020;2024-02-21T05:01:56;2.60;99.90
73438;DHT22;66471;56.532;21.020;2024-02-21T05:04:24;2.80;99.90
73438;DHT22;66471;56.532;21.020;2024-02-21T05:06:51;2.50;99.90
73438;DHT22;66471;56.532;21.020;2024-02-21T05:09:18;2.60;99.90
73438;DHT22;66471;56.532;21.020;2024-02-21T05:11:46;2.70;99.90
73438;DHT22;66471;56.532;21.020;2024-02-21T05:14:13;2.50;99.90
73438;DHT22;66471;56.532;21.020;2024-02-21T05:16:40;2.60;99.90
73438;DHT22;66471;56.532;21.020;2024-02-21T05:19:07;2.60;99.90
73438;DHT22;66471;56.532;21.020;2024-02-21T05:21:34;2.50;99.90
73438;DHT22;66471;56.532;21.020;2024-02-21T05:24:02;2.60;99.90
73438;DHT22;66471;56.532;21.020;2024-02-21T05:26:29;2.70;99.90
73438;DHT22;66471;56.532;21.020;2024-02-21T05:28:56;2.80;99.90
73438;DHT22;66471;56.532;21.020;2024-02-21T05:31:23;2.80;99.90
73438;DHT22;66471;56.532;21.020;2024-02-21T05:33:50;2.70;99.90
73438;DHT22;66471;56.532;21.020;2024-02-21T05:36:18;2.80;99.90
73438;DHT22;66471;56.532;21.020;2024-02-21T05:38:45;2.80;99.90
73438;DHT22;66471;56.532;21.020;2024-02-21T05:41:12;2.80;99.90
73438;DHT22;66471;56.532;21.020;2024-02-21T05:43:40;2.90;99.90
73438;DHT22;66471;56.532;21.020;2024-02-21T05:46:07;2.80;99.90
73438;DHT22;66471;56.532;21.020;2024-02-21T05:48:34;2.80;99.90
73438;DHT22;66471;56.532;21.020;2024-02-21T05:51:06;2.80;99.90
73438;DHT22;66471;56.532;21.020;2024-02-21T05:53:34;2.80;99.90
73438;DHT22;66471;56.532;21.020;2024-02-21T05:56:03;2.80;99.90
73438;DHT22;66471;56.532;21.020;2024-02-21T05:58:31;2.70;99.90
73438;DHT22;66471;56.532;21.020;2024-02-21T06:00:58;2.70;99.90
73438;DHT22;66471;56.532;21.020;2024-02-21T06:03:26;2.90;99.90
73438;DHT22;66471;56.532;21.020;2024-02-21T06:05:53;2.70;99.90
73438;DHT22;66471;56.532;21.020;2024-02-21T06:08:20;2.70;99.90
73438;DHT22;66471;56.532;21.020;2024-02-21T06:10:47;2.80;99.90
73438;DHT22;66471;56.532;21.020;2024-02-21T06:13:15;2.80;99.90
73438;DHT22;66471;56.532;21.020;2024-02-21T06:15:42;2.70;99.90
73438;DHT22;66471;56.532;21.020;2024-02-21T06:18:09;2.90;99.90
73438;DHT22;66471;56.532;21.020;2024-02-21T06:20:36;3.10;99.90
73438;DHT22;66471;56.532;21.020;2024-02-21T06:23:06;3.00;99.90
73438;DHT22;66471;56.532;21.020;2024-02-21T06:25:33;3.00;99.90
73438;DHT22;66471;56.532;21.020;2024-02-21T06:28:01;3.10;99.90
73438;DHT22;66471;56.532;21.020;2024-02-21T06:30:28;3.10;99.90
73438;DHT22;66471;56.532;21.020;2024-02-21T06:32:55;3.20;99.90
73438;DHT22;66471;56.532;21.020;2024-02-21T06:35:23;3.10;99.90
73438;DHT22;66471;56.532;21.020;2024-02-21T06:37:53;3.20;99.90
73438;DHT22;66471;56.532;21.020;2024-02-21T06:40:22;3.00;99.90
73438;DHT22;66471;56.532;21.020;2024-02-21T06:42:50;3.10;99.90
73438;DHT22;66471;56.532;21.020;2024-02-21T06:45:17;3.10;99.90
73438;DHT22;66471;56.532;21.020;2024-02-21T06:47:44;3.10;99.90
73438;DHT22;66471;56.532;21.020;2024-02-21T06:50:11;3.30;99.90
73438;DHT22;66471;56.532;21.020;2024-02-21T06:52:39;3.20;99.90
73438;DHT22;66471;56.532;21.020;2024-02-21T06:55:06;3.30;99.90
73438;DHT22;66471;56.532;21.020;2024-02-21T06:57:33;3.40;99.90
73438;DHT22;66471;56.532;21.020;2024-02-21T07:00:00;3.30;99.90
73438;DHT22;66471;56.532;21.020;2024-02-21T07:02:27;3.50;99.90
73438;DHT22;66471;56.532;21.020;2024-02-21T07:04:54;3.40;99.90
73438;DHT22;66471;56.532;21.020;2024-02-21T07:07:22;3.40;99.90
73438;DHT22;66471;56.532;21.020;2024-02-21T07:09:49;3.70;99.90
73438;DHT22;66471;56.532;21.020;2024-02-21T07:12:17;3.90;99.90
73438;DHT22;66471;56.532;21.020;2024-02-21T07:14:44;3.90;99.90
73438;DHT22;66471;56.532;21.020;2024-02-21T07:17:11;4.10;99.90
73438;DHT22;66471;56.532;21.020;2024-02-21T07:19:39;4.00;99.90
73438;DHT22;66471;56.532;21.020;2024-02-21T07:22:06;4.00;99.90
73438;DHT22;66471;56.532;21.020;2024-02-21T07:24:33;3.90;99.90
73438;DHT22;66471;56.532;21.020;2024-02-21T07:27:00;3.80;99.90
73438;DHT22;66471;56.532;21.020;2024-02-21T07:29:31;4.30;99.90
73438;DHT22;66471;56.532;21.020;2024-02-21T07:31:58;4.00;99.90
73438;DHT22;66471;56.532;21.020;2024-02-21T07:34:26;4.30;99.90
73438;DHT22;66471;56.532;21.020;2024-02-21T07:36:53;4.10;99.90
73438;DHT22;66471;56.532;21.020;2024-02-21T07:39:20;4.00;99.90
73438;DHT22;66471;56.532;21.020;2024-02-21T07:41:47;4.10;99.90
73438;DHT22;66471;56.532;21.020;2024-02-21T07:44:16;4.10;99.90
73438;DHT22;66471;56.532;21.020;2024-02-21T07:46:43;4.30;99.90
73438;DHT22;66471;56.532;21.020;2024-02-21T07:49:10;4.20;99.90
73438;DHT22;66471;56.532;21.020;2024-02-21T07:51:37;4.10;99.90
73438;DHT22;66471;56.532;21.020;2024-02-21T07:54:05;4.10;99.90
73438;DHT22;66471;56.532;21.020;2024-02-21T07:56:35;4.30;99.90
73438;DHT22;66471;56.532;21.020;2024-02-21T07:59:02;4.40;99.90
73438;DHT22;66471;56.532;21.020;2024-02-21T08:01:29;4.20;99.90
73438;DHT22;66471;56.532;21.020;2024-02-21T08:03:57;4.30;99.90
73438;DHT22;66471;56.532;21.020;2024-02-21T08:06:25;4.30;99.90
73438;DHT22;66471;56.532;21.020;2024-02-21T08:08:52;4.20;99.90
73438;DHT22;66471;56.532;21.020;2024-02-21T08:11:20;4.30;99.90
73438;DHT22;66471;56.532;21.020;2024-02-21T08:13:47;4.20;99.90
73438;DHT22;66471;56.532;21.020;2024-02-21T08:16:14;4.40;99.90
73438;DHT22;66471;56.532;21.020;2024-02-21T08:18:41;4.30;99.90
73438;DHT22;66471;56.532;21.020;2024-02-21T08:21:10;4.30;99.90
73438;DHT22;66471;56.532;21.020;2024-02-21T08:23:37;4.30;99.90
73438;DHT22;66471;56.532;21.020;2024-02-21T08:26:04;4.30;99.90
73438;DHT22;66471;56.532;21.020;2024-02-21T08:28:32;4.30;99.90
73438;DHT22;66471;56.532;21.020;2024-02-21T08:30:59;4.40;99.90
73438;DHT22;66471;56.532;21.020;2024-02-21T08:33:26;4.40;99.90
73438;DHT22;66471;56.532;21.020;2024-02-21T08:35:54;4.50;99.90
73438;DHT22;66471;56.532;21.020;2024-02-21T08:38:21;4.30;99.90
73438;DHT22;66471;56.532;21.020;2024-02-21T08:40:49;4.50;99.90
73438;DHT22;66471;56.532;21.020;2024-02-21T08:43:16;4.40;99.90
73438;DHT22;66471;56.532;21.020;2024-02-21T08:45:43;4.50;99.90
73438;DHT22;66471;56.532;21.020;2024-02-21T08:48:10;4.50;99.90
73438;DHT22;66471;56.532;21.020;2024-02-21T08:50:39;4.40;99.90
73438;DHT22;66471;56.532;21.020;2024-02-21T08:53:06;4.40;99.90
73438;DHT22;66471;56.532;21.020;2024-02-21T08:55:34;4.50;99.90
73438;DHT22;66471;56.532;21.020;2024-02-21T08:58:02;4.50;99.90
73438;DHT22;66471;56.532;21.020;2024-02-21T09:00:31;4.60;99.90
73438;DHT22;66471;56.532;21.020;2024-02-21T09:02:58;4.50;99.90
73438;DHT22;66471;56.532;21.020;2024-02-21T09:05:25;4.60;99.90
73438;DHT22;66471;56.532;21.020;2024-02-21T09:07:53;4.50;99.90
73438;DHT22;66471;56.532;21.020;2024-02-21T09:10:21;4.50;99.90
73438;DHT22;66471;56.532;21.020;2024-02-21T09:12:48;4.60;99.90
73438;DHT22;66471;56.532;21.020;2024-02-21T09:15:15;4.70;99.90
73438;DHT22;66471;56.532;21.020;2024-02-21T09:17:43;4.70;99.90
73438;DHT22;66471;56.532;21.020;2024-02-21T09:20:10;4.40;99.90
73438;DHT22;66471;56.532;21.020;2024-02-21T09:22:39;4.50;99.90
73438;DHT22;66471;56.532;21.020;2024-02-21T09:25:07;4.70;99.90
73438;DHT22;66471;56.532;21.020;2024-02-21T09:27:34;4.60;99.90
73438;DHT22;66471;56.532;21.020;2024-02-21T09:30:01;4.50;99.90
73438;DHT22;66471;56.532;21.020;2024-02-21T09:32:31;4.80;99.90
73438;DHT22;66471;56.532;21.020;2024-02-21T09:35:01;4.70;99.90
73438;DHT22;66471;56.532;21.020;2024-02-21T09:37:29;4.70;99.90
73438;DHT22;66471;56.532;21.020;2024-02-21T09:39:56;4.80;99.90
73438;DHT22;66471;56.532;21.020;2024-02-21T09:42:37;4.80;99.90
73438;DHT22;66471;56.532;21.020;2024-02-21T09:50:27;4.70;99.90
73438;DHT22;66471;56.532;21.020;2024-02-21T09:52:56;4.90;99.90
73438;DHT22;66471;56.532;21.020;2024-02-21T09:55:26;4.80;99.90
73438;DHT22;66471;56.532;21.020;2024-02-21T09:57:54;4.90;99.90
73438;DHT22;66471;56.532;21.020;2024-02-21T10:00:23;4.90;99.90
73438;DHT22;66471;56.532;21.020;2024-02-21T10:02:50;4.90;99.90
73438;DHT22;66471;56.532;21.020;2024-02-21T10:05:18;4.70;99.90
73438;DHT22;66471;56.532;21.020;2024-02-21T10:07:45;4.90;99.90
73438;DHT22;66471;56.532;21.020;2024-02-21T10:10:12;5.00;99.90
73438;DHT22;66471;56.532;21.020;2024-02-21T10:12:52;4.90;99.90
73438;DHT22;66471;56.532;21.020;2024-02-21T10:15:22;5.10;99.90
73438;DHT22;66471;56.532;21.020;2024-02-21T10:18:01;5.00;99.90
73438;DHT22;66471;56.532;21.020;2024-02-21T10:20:30;5.10;99.90
73438;DHT22;66471;56.532;21.020;2024-02-21T10:23:04;5.20;99.90
73438;DHT22;66471;56.532;21.020;2024-02-21T10:25:36;5.40;99.90
73438;DHT22;66471;56.532;21.020;2024-02-21T10:28:11;5.40;99.90
73438;DHT22;66471;56.532;21.020;2024-02-21T10:30:38;5.30;99.90
73438;DHT22;66471;56.532;21.020;2024-02-21T10:33:16;5.30;99.90
73438;DHT22;66471;56.532;21.020;2024-02-21T10:35:43;5.20;99.90
73438;DHT22;66471;56.532;21.020;2024-02-21T10:38:10;5.10;99.90
73438;DHT22;66471;56.532;21.020;2024-02-21T10:40:39;5.20;99.90
73438;DHT22;66471;56.532;21.020;2024-02-21T10:43:10;5.20;99.90
73438;DHT22;66471;56.532;21.020;2024-02-21T10:45:39;5.10;99.90
73438;DHT22;66471;56.532;21.020;2024-02-21T10:48:12;5.20;99.90
73438;DHT22;66471;56.532;21.020;2024-02-21T10:56:29;5.20;99.90
73438;DHT22;66471;56.532;21.020;2024-02-21T10:59:09;5.40;99.90
73438;DHT22;66471;56.532;21.020;2024-02-21T11:01:37;5.30;99.90
73438;DHT22;66471;56.532;21.020;2024-02-21T11:04:08;5.40;99.90
73438;DHT22;66471;56.532;21.020;2024-02-21T11:06:37;5.30;99.90
73438;DHT22;66471;56.532;21.020;2024-02-21T11:09:06;5.60;99.90
73438;DHT22;66471;56.532;21.020;2024-02-21T11:11:43;5.50;99.90
73438;DHT22;66471;56.532;21.020;2024-02-21T11:16:42;5.30;99.90
73438;DHT22;66471;56.532;21.020;2024-02-21T11:19:19;5.20;99.90
73438;DHT22;66471;56.532;21.020;2024-02-21T11:21:47;5.30;99.90
73438;DHT22;66471;56.532;21.020;2024-02-21T11:24:32;5.30;99.90
73438;DHT22;66471;56.532;21.020;2024-02-21T11:27:21;5.20;99.90
73438;DHT22;66471;56.532;21.020;2024-02-21T11:29:56;5.20;99.90
73438;DHT22;66471;56.532;21.020;2024-02-21T11:32:25;5.20;99.90
73438;DHT22;66471;56.532;21.020;2024-02-21T11:37:28;5.20;99.90
73438;DHT22;66471;56.532;21.020;2024-02-21T11:39:56;5.10;99.90
73438;DHT22;66471;56.532;21.020;2024-02-21T11:42:25;5.10;99.90
73438;DHT22;66471;56.532;21.020;2024-02-21T11:44:53;5.10;99.90
73438;DHT22;66471;56.532;21.020;2024-02-21T11:47:24;5.10;99.90
73438;DHT22;66471;56.532;21.020;2024-02-21T11:49:53;5.10;99.90
73438;DHT22;66471;56.532;21.020;2024-02-21T11:52:25;5.20;99.90
73438;DHT22;66471;56.532;21.020;2024-02-21T11:54:53;5.10;99.90
73438;DHT22;66471;56.532;21.020;2024-02-21T11:57:22;4.90;99.90
73438;DHT22;66471;56.532;21.020;2024-02-21T11:59:51;4.90;99.90
73438;DHT22;66471;56.532;21.020;2024-02-21T12:02:26;5.10;99.90
73438;DHT22;66471;56.532;21.020;2024-02-21T12:04:55;5.00;99.90
73438;DHT22;66471;56.532;21.020;2024-02-21T12:07:23;5.00;99.90
73438;DHT22;66471;56.532;21.020;2024-02-21T12:09:51;4.90;99.90
73438;DHT22;66471;56.532;21.020;2024-02-21T12:12:20;5.20;99.90
73438;DHT22;66471;56.532;21.020;2024-02-21T12:14:57;5.10;99.90
73438;DHT22;66471;56.532;21.020;2024-02-21T12:17:25;5.20;99.90
73438;DHT22;66471;56.532;21.020;2024-02-21T12:19:52;5.10;99.90
73438;DHT22;66471;56.532;21.020;2024-02-21T12:22:20;4.90;99.90
73438;DHT22;66471;56.532;21.020;2024-02-21T12:24:47;5.10;99.90
73438;DHT22;66471;56.532;21.020;2024-02-21T12:27:15;5.00;99.90
73438;DHT22;66471;56.532;21.020;2024-02-21T12:29:42;5.10;99.90
73438;DHT22;66471;56.532;21.020;2024-02-21T12:32:18;5.20;99.90
73438;DHT22;66471;56.532;21.020;2024-02-21T12:34:46;5.20;99.90
73438;DHT22;66471;56.532;21.020;2024-02-21T12:37:22;5.10;99.90
73438;DHT22;66471;56.532;21.020;2024-02-21T12:39:49;5.30;99.90
73438;DHT22;66471;56.532;21.020;2024-02-21T12:42:16;5.40;99.90
73438;DHT22;66471;56.532;21.020;2024-02-21T12:44:45;5.30;99.90
73438;DHT22;66471;56.532;21.020;2024-02-21T12:47:14;5.10;99.90
73438;DHT22;66471;56.532;21.020;2024-02-21T12:49:41;5.20;99.90
73438;DHT22;66471;56.532;21.020;2024-02-21T12:52:12;5.20;99.90
73438;DHT22;66471;56.532;21.020;2024-02-21T12:54:40;5.20;99.90
73438;DHT22;66471;56.532;21.020;2024-02-21T12:57:09;5.10;99.90
73438;DHT22;66471;56.532;21.020;2024-02-21T12:59:36;5.00;99.90
73438;DHT22;66471;56.532;21.020;2024-02-21T13:02:03;5.10;99.90
73438;DHT22;66471;56.532;21.020;2024-02-21T13:04:31;5.20;99.90
73438;DHT22;66471;56.532;21.020;2024-02-21T13:06:58;5.30;99.90
73438;DHT22;66471;56.532;21.020;2024-02-21T13:09:25;5.10;99.90
73438;DHT22;66471;56.532;21.020;2024-02-21T13:11:53;5.20;99.90
73438;DHT22;66471;56.532;21.020;2024-02-21T13:14:20;5.30;99.90
73438;DHT22;66471;56.532;21.020;2024-02-21T13:16:48;5.30;99.90
73438;DHT22;66471;56.532;21.020;2024-02-21T13:19:15;5.10;99.90
73438;DHT22;66471;56.532;21.020;2024-02-21T13:21:47;5.20;99.90
73438;DHT22;66471;56.532;21.020;2024-02-21T13:24:14;5.10;99.90
73438;DHT22;66471;56.532;21.020;2024-02-21T13:26:42;4.90;99.90
73438;DHT22;66471;56.532;21.020;2024-02-21T13:29:09;5.10;99.90
73438;DHT22;66471;56.532;21.020;2024-02-21T13:31:36;5.00;99.90
73438;DHT22;66471;56.532;21.020;2024-02-21T13:34:03;4.90;99.90
73438;DHT22;66471;56.532;21.020;2024-02-21T13:36:32;5.10;99.90
73438;DHT22;66471;56.532;21.020;2024-02-21T13:39:00;5.00;99.90
73438;DHT22;66471;56.532;21.020;2024-02-21T13:41:27;5.20;99.90
73438;DHT22;66471;56.532;21.020;2024-02-21T13:43:55;5.10;99.90
73438;DHT22;66471;56.532;21.020;2024-02-21T13:46:22;5.10;99.90
73438;DHT22;66471;56.532;21.020;2024-02-21T13:48:49;5.00;99.90
73438;DHT22;66471;56.532;21.020;2024-02-21T13:51:16;5.00;99.90
73438;DHT22;66471;56.532;21.020;2024-02-21T13:53:44;4.90;99.90
73438;DHT22;66471;56.532;21.020;2024-02-21T13:56:12;5.00;99.90
73438;DHT22;66471;56.532;21.020;2024-02-21T13:58:41;5.10;99.90
73438;DHT22;66471;56.532;21.020;2024-02-21T14:01:08;5.00;99.90
73438;DHT22;66471;56.532;21.020;2024-02-21T14:03:36;5.10;99.90
73438;DHT22;66471;56.532;21.020;2024-02-21T14:06:04;5.20;99.90
73438;DHT22;66471;56.532;21.020;2024-02-21T14:08:32;5.30;99.90
73438;DHT22;66471;56.532;21.020;2024-02-21T14:11:01;5.20;99.90
73438;DHT22;66471;56.532;21.020;2024-02-21T14:13:29;5.10;99.90
73438;DHT22;66471;56.532;21.020;2024-02-21T14:15:57;5.00;99.90
73438;DHT22;66471;56.532;21.020;2024-02-21T14:18:24;4.90;99.90
73438;DHT22;66471;56.532;21.020;2024-02-21T14:20:51;5.00;99.90
73438;DHT22;66471;56.532;21.020;2024-02-21T14:23:20;4.90;99.90
73438;DHT22;66471;56.532;21.020;2024-02-21T14:25:48;4.90;99.90
73438;DHT22;66471;56.532;21.020;2024-02-21T14:28:17;4.90;99.90
73438;DHT22;66471;56.532;21.020;2024-02-21T14:30:48;5.00;99.90
73438;DHT22;66471;56.532;21.020;2024-02-21T14:33:17;5.00;99.90
73438;DHT22;66471;56.532;21.020;2024-02-21T14:35:44;4.80;99.90
73438;DHT22;66471;56.532;21.020;2024-02-21T14:38:11;5.00;99.90
73438;DHT22;66471;56.532;21.020;2024-02-21T14:40:38;5.00;99.90
73438;DHT22;66471;56.532;21.020;2024-02-21T14:43:06;4.90;99.90
73438;DHT22;66471;56.532;21.020;2024-02-21T14:45:33;4.90;99.90
73438;DHT22;66471;56.532;21.020;2024-02-21T14:48:00;4.80;99.90
73438;DHT22;66471;56.532;21.020;2024-02-21T14:50:28;4.90;99.90
73438;DHT22;66471;56.532;21.020;2024-02-21T14:52:56;4.70;99.90
73438;DHT22;66471;56.532;21.020;2024-02-21T14:55:24;4.80;99.90
73438;DHT22;66471;56.532;21.020;2024-02-21T14:57:51;4.80;99.90
73438;DHT22;66471;56.532;21.020;2024-02-21T15:00:18;4.70;99.90
73438;DHT22;66471;56.532;21.020;2024-02-21T15:02:47;4.80;99.90
73438;DHT22;66471;56.532;21.020;2024-02-21T15:05:15;4.80;99.90
73438;DHT22;66471;56.532;21.020;2024-02-21T15:07:43;4.90;99.90
73438;DHT22;66471;56.532;21.020;2024-02-21T15:10:10;5.00;99.90
73438;DHT22;66471;56.532;21.020;2024-02-21T15:12:38;4.90;99.90
73438;DHT22;66471;56.532;21.020;2024-02-21T15:15:05;4.90;99.90
73438;DHT22;66471;56.532;21.020;2024-02-21T15:17:33;4.80;99.90
73438;DHT22;66471;56.532;21.020;2024-02-21T15:20:00;4.80;99.90
73438;DHT22;66471;56.532;21.020;2024-02-21T15:22:28;4.80;99.90
73438;DHT22;66471;56.532;21.020;2024-02-21T15:24:55;4.70;99.90
73438;DHT22;66471;56.532;21.020;2024-02-21T15:27:22;4.90;99.90
73438;DHT22;66471;56.532;21.020;2024-02-21T15:29:51;4.90;99.90
73438;DHT22;66471;56.532;21.020;2024-02-21T15:32:18;4.70;99.90
73438;DHT22;66471;56.532;21.020;2024-02-21T15:34:45;4.60;99.90
73438;DHT22;66471;56.532;21.020;2024-02-21T15:37:13;4.80;99.90
73438;DHT22;66471;56.532;21.020;2024-02-21T15:39:44;4.70;99.90
73438;DHT22;66471;56.532;21.020;2024-02-21T15:42:11;4.80;99.90
73438;DHT22;66471;56.532;21.020;2024-02-21T15:44:39;4.80;99.90
73438;DHT22;66471;56.532;21.020;2024-02-21T15:47:06;4.90;99.90
73438;DHT22;66471;56.532;21.020;2024-02-21T15:49:33;5.00;99.90
73438;DHT22;66471;56.532;21.020;2024-02-21T15:52:00;4.70;99.90